Terminal Aerodrome Forecast
Issued by NWS Mt. Holly, NJ

Home | Current Version | Previous Version | Text Only | Print | Product List | Glossary On
Versions: 1 2 3 4 5 6 7 8 9 10 11 12 13 14
525
FTUS41 KPHI 042320
TAFACY
TAF
KACY 042320Z 0500/0524 VRB02KT P6SM FEW040 OVC120
     FM050600 16005KT P6SM OVC040
     FM050900 18005KT 5SM -RA SCT015 OVC025
     FM051200 VRB05KT 3SM -RA BR BKN009 OVC015=

USA.gov is the U.S. government's official web portal to all federal, state and local government web resources and services.